createdAt,value
2019-01-29T00:01:56.877Z,312.70
2019-01-29T00:04:26.227Z,304.53
2019-01-29T00:06:55.612Z,313.30
2019-01-29T00:09:24.857Z,310.07
2019-01-29T00:11:54.238Z,287.17
2019-01-29T00:14:23.655Z,295.70
2019-01-29T00:16:52.939Z,299.23
2019-01-29T00:19:22.305Z,272.30
2019-01-29T00:21:51.820Z,262.43
2019-01-29T00:24:21.398Z,278.70
2019-01-29T00:26:50.818Z,272.33
2019-01-29T00:29:20.356Z,267.90
2019-01-29T00:31:49.797Z,249.70
2019-01-29T00:34:19.415Z,268.57
2019-01-29T00:36:48.857Z,254.90
2019-01-29T00:39:18.314Z,249.30
2019-01-29T00:41:47.885Z,242.83
2019-01-29T00:44:17.315Z,241.97
2019-01-29T00:46:46.829Z,224.10
2019-01-29T00:49:16.520Z,224.80
2019-01-29T00:51:45.832Z,232.47
2019-01-29T00:54:15.141Z,220.13
2019-01-29T00:56:44.550Z,230.67
2019-01-29T00:59:14.013Z,238.90
2019-01-29T01:01:43.445Z,228.83
2019-01-29T01:04:12.980Z,240.87
2019-01-29T01:06:42.525Z,243.00
2019-01-29T01:09:11.959Z,241.97
2019-01-29T01:11:41.236Z,245.93
2019-01-29T01:14:10.697Z,247.27
2019-01-29T01:16:40.166Z,238.10
2019-01-29T01:19:09.628Z,243.77
2019-01-29T01:21:39.236Z,247.57
2019-01-29T01:24:08.658Z,256.10
2019-01-29T01:26:38.214Z,280.37
2019-01-29T01:29:07.670Z,275.27
2019-01-29T01:31:37.234Z,276.07
2019-01-29T01:34:06.807Z,280.00
2019-01-29T01:36:36.126Z,265.40
2019-01-29T01:39:08.839Z,267.17
2019-01-29T01:41:38.484Z,257.93
2019-01-29T01:44:07.973Z,271.47
2019-01-29T01:46:37.456Z,269.40
2019-01-29T01:49:07.034Z,268.17
2019-01-29T01:51:36.474Z,266.73
2019-01-29T01:54:06.054Z,264.43
2019-01-29T01:56:35.602Z,262.40
2019-01-29T01:59:05.067Z,277.00
2019-01-29T02:01:34.444Z,251.80
2019-01-29T02:04:04.143Z,269.90
2019-01-29T02:06:33.456Z,230.43
2019-01-29T02:09:04.134Z,256.57
2019-01-29T02:11:33.321Z,231.93
2019-01-29T02:14:02.780Z,238.47
2019-01-29T02:16:32.025Z,234.50
2019-01-29T02:19:01.414Z,249.53
2019-01-29T02:21:31.302Z,249.20
2019-01-29T02:24:00.468Z,233.43
2019-01-29T02:26:29.944Z,233.80
2019-01-29T02:28:59.397Z,244.73
2019-01-29T02:31:28.673Z,256.50
2019-01-29T02:33:58.961Z,246.73
2019-01-29T02:36:28.339Z,245.03
2019-01-29T02:38:57.843Z,231.20
2019-01-29T02:41:27.380Z,213.70
2019-01-29T02:43:56.853Z,233.77
2019-01-29T02:46:26.373Z,230.80
2019-01-29T02:48:55.872Z,218.70
2019-01-29T02:51:25.448Z,235.70
2019-01-29T02:53:54.931Z,238.30
2019-01-29T02:56:24.547Z,232.07
2019-01-29T02:58:53.985Z,236.90
2019-01-29T03:01:23.397Z,240.00
2019-01-29T03:03:52.935Z,244.77
2019-01-29T03:06:22.445Z,247.37
2019-01-29T03:08:51.975Z,235.33
2019-01-29T03:11:21.191Z,235.60
2019-01-29T03:13:50.511Z,217.13
2019-01-29T03:16:20.015Z,239.60
2019-01-29T03:18:49.619Z,214.40
2019-01-29T03:21:19.023Z,218.97
2019-01-29T03:23:48.526Z,216.90
2019-01-29T03:26:18.115Z,216.97
2019-01-29T03:28:47.626Z,212.63
2019-01-29T03:31:19.238Z,217.17
2019-01-29T03:33:48.598Z,208.50
2019-01-29T03:36:18.106Z,222.97
2019-01-29T03:38:47.331Z,209.90
2019-01-29T03:41:16.702Z,202.90
2019-01-29T03:43:46.347Z,200.60
2019-01-29T03:46:15.919Z,196.80
2019-01-29T03:48:45.265Z,202.50
2019-01-29T03:51:15.602Z,200.53
2019-01-29T03:53:45.075Z,195.90
2019-01-29T03:56:14.790Z,208.33
2019-01-29T03:58:44.106Z,202.43
2019-01-29T04:01:13.647Z,197.13
2019-01-29T04:03:43.202Z,204.67
2019-01-29T04:06:12.618Z,189.30
2019-01-29T04:08:42.105Z,181.13
2019-01-29T04:11:11.591Z,207.20
2019-01-29T04:13:41.091Z,184.07
2019-01-29T04:16:10.707Z,185.13
2019-01-29T04:18:40.553Z,178.33
2019-01-29T04:21:10.973Z,181.47
2019-01-29T04:23:47.327Z,183.27
2019-01-29T04:26:11.485Z,178.67
2019-01-29T04:28:41.000Z,172.53
2019-01-29T04:31:10.521Z,177.77
2019-01-29T04:33:40.088Z,166.17
2019-01-29T04:36:09.581Z,169.53
2019-01-29T04:38:39.118Z,168.23
2019-01-29T04:41:08.518Z,182.53
2019-01-29T04:43:38.030Z,174.20
2019-01-29T04:46:07.662Z,177.13
2019-01-29T04:48:37.037Z,183.77
2019-01-29T04:51:06.536Z,188.37
2019-01-29T04:53:36.061Z,189.70
2019-01-29T04:56:05.983Z,179.70
2019-01-29T04:58:35.471Z,171.47
2019-01-29T05:01:07.553Z,170.83
2019-01-29T05:03:36.962Z,166.77
2019-01-29T05:06:06.507Z,183.30
2019-01-29T05:08:36.150Z,171.83
2019-01-29T05:11:06.414Z,171.17
2019-01-29T05:13:35.684Z,177.73
2019-01-29T05:16:05.054Z,185.47
2019-01-29T05:18:34.541Z,164.67
2019-01-29T05:21:04.444Z,168.00
2019-01-29T05:23:34.269Z,166.93
2019-01-29T05:26:03.848Z,179.87
2019-01-29T05:28:33.228Z,168.13
2019-01-29T05:31:02.821Z,163.40
2019-01-29T05:33:32.241Z,158.30
2019-01-29T05:36:01.746Z,145.80
2019-01-29T05:38:31.475Z,158.43
2019-01-29T05:41:02.050Z,145.90
2019-01-29T05:43:31.547Z,153.03
2019-01-29T05:46:01.016Z,155.17
2019-01-29T05:48:30.494Z,152.53
2019-01-29T05:51:00.134Z,153.10
2019-01-29T05:53:29.545Z,149.60
2019-01-29T05:55:59.024Z,149.53
2019-01-29T05:58:28.565Z,149.37
2019-01-29T06:00:58.093Z,135.20
2019-01-29T06:03:27.789Z,140.50
2019-01-29T06:06:00.318Z,136.57
2019-01-29T06:08:29.928Z,139.80
2019-01-29T06:10:59.297Z,141.50
2019-01-29T06:13:28.565Z,131.80
2019-01-29T06:15:57.944Z,139.10
2019-01-29T06:18:27.415Z,138.53
2019-01-29T06:20:56.981Z,130.13
2019-01-29T06:23:27.286Z,133.37
2019-01-29T06:25:56.759Z,127.90
2019-01-29T06:28:26.326Z,151.87
2019-01-29T06:30:55.793Z,138.60
2019-01-29T06:33:25.326Z,145.57
2019-01-29T06:35:54.765Z,145.37
2019-01-29T06:38:24.043Z,133.10
2019-01-29T06:40:53.426Z,146.17
2019-01-29T06:43:22.889Z,137.93
2019-01-29T06:45:52.409Z,137.37
2019-01-29T06:48:21.946Z,148.43
2019-01-29T06:50:53.167Z,141.53
2019-01-29T06:53:24.618Z,139.97
2019-01-29T06:55:59.064Z,128.90
2019-01-29T06:58:28.536Z,153.20
2019-01-29T07:00:58.930Z,145.20
2019-01-29T07:03:37.860Z,145.03
2019-01-29T07:06:07.340Z,141.83
2019-01-29T07:08:36.800Z,128.20
2019-01-29T07:11:06.273Z,140.40
2019-01-29T07:13:35.596Z,154.40
2019-01-29T07:16:06.874Z,137.73
2019-01-29T07:18:43.594Z,139.90
2019-01-29T07:21:12.905Z,139.53
2019-01-29T07:23:42.557Z,136.87
2019-01-29T07:26:14.249Z,144.10
2019-01-29T07:28:43.540Z,139.90
2019-01-29T07:31:13.037Z,138.63
2019-01-29T07:33:42.573Z,132.47
2019-01-29T07:36:11.995Z,141.03
2019-01-29T07:38:41.583Z,142.27
2019-01-29T07:41:11.877Z,132.50
2019-01-29T07:43:41.313Z,144.13
2019-01-29T07:46:10.607Z,127.53
2019-01-29T07:48:40.024Z,119.87
2019-01-29T07:51:10.465Z,135.07
2019-01-29T07:53:39.891Z,124.27
2019-01-29T07:56:09.307Z,131.07
2019-01-29T07:58:38.766Z,136.23
2019-01-29T08:01:07.931Z,135.03
2019-01-29T08:03:38.338Z,138.67
2019-01-29T08:06:08.101Z,126.30
2019-01-29T08:08:37.269Z,128.57
2019-01-29T08:11:06.881Z,127.73
2019-01-29T08:13:36.277Z,132.80
2019-01-29T08:16:06.036Z,124.63
2019-01-29T08:18:35.354Z,131.53
2019-01-29T08:21:05.955Z,133.27
2019-01-29T08:23:35.197Z,126.83
2019-01-29T08:26:04.743Z,118.03
2019-01-29T08:28:34.055Z,122.63
2019-01-29T08:31:03.637Z,120.90
2019-01-29T08:33:33.189Z,106.77
2019-01-29T08:36:02.695Z,116.20
2019-01-29T08:38:35.847Z,120.00
2019-01-29T08:41:05.567Z,115.93
2019-01-29T08:43:34.812Z,109.73
2019-01-29T08:46:05.656Z,97.20
2019-01-29T08:48:35.104Z,100.93
2019-01-29T08:51:04.682Z,100.70
2019-01-29T08:53:34.309Z,106.40
2019-01-29T08:56:04.110Z,104.53
2019-01-29T08:58:34.677Z,102.03
2019-01-29T09:01:04.003Z,101.53
2019-01-29T09:03:33.511Z,89.47
2019-01-29T09:06:02.786Z,94.37
2019-01-29T09:08:32.440Z,92.80
2019-01-29T09:11:01.957Z,92.83
2019-01-29T09:13:31.290Z,95.90
2019-01-29T09:16:00.538Z,85.00
2019-01-29T09:18:30.081Z,93.23
2019-01-29T09:20:59.869Z,82.97
2019-01-29T09:23:29.590Z,90.23
2019-01-29T09:25:58.952Z,91.23
2019-01-29T09:28:28.395Z,92.83
2019-01-29T09:30:57.828Z,88.00
2019-01-29T09:33:27.034Z,85.80
2019-01-29T09:35:56.436Z,82.43
2019-01-29T09:38:26.761Z,74.60
2019-01-29T09:40:56.428Z,77.37
2019-01-29T09:43:25.859Z,74.80
2019-01-29T09:45:55.271Z,76.47
2019-01-29T09:48:25.222Z,72.27
2019-01-29T09:50:54.696Z,69.70
2019-01-29T09:53:23.929Z,75.27
2019-01-29T09:55:53.386Z,68.63
2019-01-29T09:58:22.794Z,74.73
2019-01-29T10:00:52.043Z,76.30
2019-01-29T10:03:21.426Z,72.33
2019-01-29T10:05:50.903Z,69.27
2019-01-29T10:08:20.068Z,69.10
2019-01-29T10:10:49.572Z,60.40
2019-01-29T10:13:18.993Z,62.03
2019-01-29T10:15:48.223Z,62.33
2019-01-29T10:18:23.439Z,65.80
2019-01-29T10:20:52.917Z,61.73
2019-01-29T10:23:22.356Z,62.67
2019-01-29T10:25:51.913Z,61.43
2019-01-29T10:28:25.490Z,61.23
2019-01-29T10:30:54.991Z,55.83
2019-01-29T10:33:24.530Z,59.37
2019-01-29T10:35:53.969Z,51.53
2019-01-29T10:38:23.202Z,59.83
2019-01-29T10:40:52.910Z,57.70
2019-01-29T10:43:22.165Z,56.80
2019-01-29T10:45:51.756Z,55.90
2019-01-29T10:48:22.027Z,57.30
2019-01-29T10:50:51.751Z,55.27
2019-01-29T10:53:20.939Z,53.57
2019-01-29T10:55:51.368Z,55.60
2019-01-29T10:58:21.168Z,57.37
2019-01-29T11:00:50.961Z,56.53
2019-01-29T11:03:20.217Z,51.00
2019-01-29T11:05:49.696Z,52.53
2019-01-29T11:08:18.857Z,53.83
2019-01-29T11:10:48.315Z,56.40
2019-01-29T11:13:17.492Z,57.40
2019-01-29T11:15:47.019Z,58.67
2019-01-29T11:18:16.758Z,53.63
2019-01-29T11:20:46.399Z,58.07
2019-01-29T11:23:17.538Z,56.60
2019-01-29T11:25:55.461Z,52.43
2019-01-29T11:28:18.549Z,55.40
2019-01-29T11:30:48.204Z,56.93
2019-01-29T11:33:17.569Z,67.63
2019-01-29T11:35:47.093Z,58.00
2019-01-29T11:38:16.597Z,55.87
2019-01-29T11:40:46.171Z,60.77
2019-01-29T11:43:15.564Z,65.70
2019-01-29T11:45:50.774Z,56.53
2019-01-29T11:48:20.489Z,57.70
2019-01-29T11:50:49.780Z,59.03
2019-01-29T11:53:18.946Z,53.93
2019-01-29T11:55:48.646Z,58.93
2019-01-29T11:58:17.960Z,49.63
2019-01-29T12:00:48.923Z,46.63
2019-01-29T12:03:18.127Z,45.77
2019-01-29T12:05:47.593Z,50.67
2019-01-29T12:08:17.110Z,50.47
2019-01-29T12:10:46.727Z,45.33
2019-01-29T12:13:16.504Z,46.47
2019-01-29T12:15:46.485Z,43.80
2019-01-29T12:18:15.915Z,39.53
2019-01-29T12:20:45.530Z,47.00
2019-01-29T12:23:14.844Z,38.53
2019-01-29T12:25:44.126Z,48.17
2019-01-29T12:28:13.377Z,41.63
2019-01-29T12:30:51.821Z,45.67
2019-01-29T12:33:29.050Z,43.07
2019-01-29T12:35:58.303Z,45.07
2019-01-29T12:38:33.332Z,41.80
2019-01-29T12:41:08.704Z,40.40
2019-01-29T12:43:47.599Z,45.13
2019-01-29T12:46:35.061Z,43.50
2019-01-29T12:49:05.362Z,44.40
2019-01-29T12:51:35.949Z,43.40
2019-01-29T12:54:06.567Z,42.53
2019-01-29T12:56:35.975Z,44.17
2019-01-29T12:59:05.767Z,47.50
2019-01-29T13:01:37.091Z,37.37
2019-01-29T13:04:06.780Z,40.20
2019-01-29T13:06:37.207Z,43.00
2019-01-29T13:09:08.825Z,39.73
2019-01-29T13:11:40.335Z,41.77
2019-01-29T13:14:09.841Z,40.60
2019-01-29T13:16:39.387Z,44.73
2019-01-29T13:19:09.720Z,41.87
2019-01-29T13:21:39.166Z,42.67
2019-01-29T13:24:08.557Z,40.07
2019-01-29T13:26:39.007Z,41.87
2019-01-29T13:29:08.569Z,35.47
2019-01-29T13:31:38.182Z,41.70
2019-01-29T13:34:07.916Z,40.97
2019-01-29T13:36:37.504Z,47.80
2019-01-29T13:39:09.013Z,43.20
2019-01-29T13:41:39.378Z,40.60
2019-01-29T13:44:08.816Z,47.80
2019-01-29T13:46:38.010Z,50.10
2019-01-29T13:49:07.470Z,67.47
2019-01-29T13:51:36.921Z,66.00
2019-01-29T13:54:06.256Z,56.33
2019-01-29T13:56:39.057Z,46.83
2019-01-29T13:59:06.727Z,48.27
2019-01-29T14:01:36.211Z,50.47
2019-01-29T14:04:06.550Z,46.23
2019-01-29T14:06:36.793Z,41.80
2019-01-29T14:09:08.339Z,51.70
2019-01-29T14:11:37.666Z,37.23
2019-01-29T14:14:07.409Z,40.63
2019-01-29T14:16:37.372Z,36.07
2019-01-29T14:19:07.098Z,42.73
2019-01-29T14:21:36.726Z,41.57
2019-01-29T14:24:05.965Z,41.63
2019-01-29T14:26:35.328Z,34.77
2019-01-29T14:29:04.857Z,36.77
2019-01-29T14:31:35.452Z,34.67
2019-01-29T14:34:05.431Z,39.47
2019-01-29T14:36:34.720Z,38.13
2019-01-29T14:39:19.072Z,36.93
2019-01-29T14:41:48.317Z,38.20
2019-01-29T14:44:18.096Z,32.93
2019-01-29T14:46:47.535Z,34.13
2019-01-29T14:49:16.850Z,33.33
2019-01-29T14:51:46.416Z,37.03
2019-01-29T14:54:16.432Z,36.57
2019-01-29T14:56:45.909Z,31.23
2019-01-29T14:59:15.642Z,34.83
2019-01-29T15:01:47.294Z,31.43
2019-01-29T15:04:16.732Z,34.60
2019-01-29T15:06:46.303Z,33.07
2019-01-29T15:09:17.509Z,37.23
2019-01-29T15:11:47.789Z,35.00
2019-01-29T15:14:17.283Z,38.60
2019-01-29T15:16:49.223Z,35.03
2019-01-29T15:19:18.757Z,29.47
2019-01-29T15:21:48.792Z,36.20
2019-01-29T15:24:20.624Z,33.20
2019-01-29T15:26:50.213Z,31.77
2019-01-29T15:29:19.571Z,35.57
2019-01-29T15:31:48.874Z,35.87
2019-01-29T15:34:18.193Z,40.67
2019-01-29T15:36:47.348Z,37.87
2019-01-29T15:39:17.122Z,42.27
2019-01-29T15:41:46.420Z,43.17
2019-01-29T15:44:15.892Z,45.07
2019-01-29T15:46:45.422Z,49.47
2019-01-29T15:49:14.971Z,57.70
2019-01-29T15:51:46.501Z,57.13
2019-01-29T15:54:16.062Z,63.83
2019-01-29T15:56:46.295Z,58.60
2019-01-29T15:59:15.965Z,64.03
2019-01-29T16:01:45.648Z,64.17
2019-01-29T16:04:15.387Z,65.47
2019-01-29T16:06:45.110Z,67.03
2019-01-29T16:09:14.813Z,77.43
2019-01-29T16:11:46.076Z,73.60
2019-01-29T16:14:15.727Z,74.40
2019-01-29T16:16:45.130Z,75.07
2019-01-29T16:19:14.703Z,78.27
2019-01-29T16:21:44.140Z,73.50
2019-01-29T16:24:13.725Z,77.47
2019-01-29T16:26:43.183Z,81.60
2019-01-29T16:29:12.603Z,76.50
2019-01-29T16:31:41.877Z,78.97
2019-01-29T16:34:11.349Z,73.63
2019-01-29T16:36:40.720Z,72.80
2019-01-29T16:39:10.054Z,70.90
2019-01-29T16:41:39.321Z,73.33
2019-01-29T16:44:09.657Z,63.37
2019-01-29T16:46:40.372Z,70.93
2019-01-29T16:49:09.529Z,67.50
2019-01-29T16:51:42.266Z,64.87
2019-01-29T16:54:10.250Z,62.20
2019-01-29T16:56:39.640Z,66.30
2019-01-29T16:59:08.894Z,65.63
2019-01-29T17:01:38.350Z,62.37
2019-01-29T17:04:07.826Z,67.57
2019-01-29T17:06:37.251Z,69.50
2019-01-29T17:09:08.783Z,70.43
2019-01-29T17:11:37.955Z,71.47
2019-01-29T17:14:07.419Z,73.27
2019-01-29T17:16:37.858Z,78.33
2019-01-29T17:19:07.297Z,72.13
2019-01-29T17:21:36.762Z,77.93
2019-01-29T17:24:06.229Z,73.33
2019-01-29T17:26:35.739Z,80.37
2019-01-29T17:29:06.202Z,73.63
2019-01-29T17:31:35.601Z,69.23
2019-01-29T17:34:06.011Z,75.60
2019-01-29T17:36:35.417Z,75.27
2019-01-29T17:39:07.445Z,82.07
2019-01-29T17:41:37.115Z,73.73
2019-01-29T17:44:07.423Z,73.93
2019-01-29T17:46:36.739Z,80.10
2019-01-29T17:49:09.139Z,89.73
2019-01-29T17:51:38.662Z,113.53
2019-01-29T17:54:08.005Z,87.13
2019-01-29T17:56:37.178Z,83.50
2019-01-29T17:59:06.565Z,80.93
2019-01-29T18:01:36.185Z,71.40
2019-01-29T18:04:05.888Z,74.10
2019-01-29T18:06:35.055Z,77.43
2019-01-29T18:09:08.352Z,76.47
2019-01-29T18:11:38.803Z,80.17
2019-01-29T18:14:08.304Z,74.80
2019-01-29T18:16:37.929Z,71.23
2019-01-29T18:19:07.423Z,67.13
2019-01-29T18:21:36.734Z,64.23
2019-01-29T18:24:05.998Z,61.20
2019-01-29T18:26:35.376Z,59.93
2019-01-29T18:29:05.140Z,61.67
2019-01-29T18:31:34.543Z,57.27
2019-01-29T18:34:05.247Z,54.53
2019-01-29T18:36:34.986Z,53.77
2019-01-29T18:39:06.588Z,55.90
2019-01-29T18:41:36.156Z,57.60
2019-01-29T18:44:11.986Z,58.63
2019-01-29T18:46:42.151Z,55.63
2019-01-29T18:49:11.636Z,63.10
2019-01-29T18:51:41.180Z,56.93
2019-01-29T18:54:10.838Z,57.10
2019-01-29T18:56:40.148Z,62.60
2019-01-29T18:59:09.844Z,63.63
2019-01-29T19:01:39.507Z,63.13
2019-01-29T19:04:12.265Z,71.83
2019-01-29T19:06:42.657Z,63.77
2019-01-29T19:09:12.806Z,64.37
2019-01-29T19:11:42.548Z,65.10
2019-01-29T19:14:12.021Z,60.13
2019-01-29T19:16:41.483Z,63.70
2019-01-29T19:19:10.967Z,57.93
2019-01-29T19:21:40.523Z,61.43
2019-01-29T19:24:09.988Z,61.60
2019-01-29T19:26:39.463Z,62.97
2019-01-29T19:29:09.067Z,58.03
2019-01-29T19:31:38.513Z,58.43
2019-01-29T19:34:08.046Z,68.17
2019-01-29T19:36:37.493Z,64.37
2019-01-29T19:39:08.652Z,57.90
2019-01-29T19:41:38.504Z,60.23
2019-01-29T19:44:07.725Z,57.40
2019-01-29T19:46:37.325Z,59.57
2019-01-29T19:49:06.780Z,58.90
2019-01-29T19:51:36.141Z,63.97
2019-01-29T19:54:06.653Z,63.67
2019-01-29T19:56:36.799Z,66.00
2019-01-29T19:59:07.481Z,65.50
2019-01-29T20:01:38.321Z,57.23
2019-01-29T20:04:08.603Z,57.00
2019-01-29T20:06:38.226Z,61.87
2019-01-29T20:09:10.495Z,63.47
2019-01-29T20:11:40.164Z,65.23
2019-01-29T20:14:12.091Z,64.47
2019-01-29T20:16:44.421Z,67.70
2019-01-29T20:19:14.841Z,56.03
2019-01-29T20:21:44.131Z,65.80
2019-01-29T20:24:17.009Z,67.43
2019-01-29T20:26:46.093Z,60.03
2019-01-29T20:29:15.618Z,63.67
2019-01-29T20:31:45.103Z,64.03
2019-01-29T20:34:15.474Z,58.60
2019-01-29T20:36:49.469Z,58.07
2019-01-29T20:39:18.879Z,63.57
2019-01-29T20:41:48.393Z,70.10
2019-01-29T20:44:18.068Z,60.63
2019-01-29T20:46:47.427Z,68.47
2019-01-29T20:49:18.921Z,60.87
2019-01-29T20:51:48.077Z,61.10
2019-01-29T20:54:17.711Z,58.63
2019-01-29T20:56:47.051Z,57.80
2019-01-29T20:59:17.425Z,56.40
2019-01-29T21:01:48.888Z,61.07
2019-01-29T21:04:18.201Z,55.80
2019-01-29T21:06:47.715Z,54.07
2019-01-29T21:09:17.552Z,57.77
2019-01-29T21:11:46.969Z,52.47
2019-01-29T21:14:18.650Z,57.83
2019-01-29T21:16:50.054Z,53.53
2019-01-29T21:19:19.713Z,59.40
2019-01-29T21:21:49.938Z,56.87
2019-01-29T21:24:19.538Z,62.10
2019-01-29T21:26:48.851Z,62.63
2019-01-29T21:29:19.514Z,59.20
2019-01-29T21:31:49.170Z,61.83
2019-01-29T21:34:18.652Z,61.73
2019-01-29T21:36:48.191Z,59.70
2019-01-29T21:39:17.757Z,53.70
2019-01-29T21:41:47.232Z,59.00
2019-01-29T21:44:16.713Z,63.50
2019-01-29T21:46:46.166Z,63.83
2019-01-29T21:49:15.814Z,57.30
2019-01-29T21:51:45.257Z,57.13
2019-01-29T21:54:14.811Z,57.70
2019-01-29T21:56:44.176Z,56.20
2019-01-29T21:59:13.786Z,54.67
2019-01-29T22:01:43.558Z,51.30
2019-01-29T22:04:12.765Z,66.67
2019-01-29T22:06:42.404Z,59.23
2019-01-29T22:09:14.080Z,59.37
2019-01-29T22:11:44.596Z,59.40
2019-01-29T22:14:14.371Z,54.87
2019-01-29T22:16:43.557Z,59.30
2019-01-29T22:19:13.049Z,57.23
2019-01-29T22:21:44.631Z,62.57
2019-01-29T22:24:14.394Z,65.40
2019-01-29T22:26:43.624Z,66.33
2019-01-29T22:29:22.918Z,63.50
2019-01-29T22:31:45.053Z,64.20
2019-01-29T22:34:14.746Z,69.97
2019-01-29T22:36:47.378Z,67.00
2019-01-29T22:39:16.829Z,63.10
2019-01-29T22:41:47.159Z,69.67
2019-01-29T22:44:16.941Z,70.80
2019-01-29T22:46:46.162Z,68.80
2019-01-29T22:49:16.633Z,61.80
2019-01-29T22:51:48.099Z,64.83
2019-01-29T22:54:18.362Z,62.77
2019-01-29T22:56:49.528Z,62.83
2019-01-29T22:59:33.126Z,58.07
2019-01-29T23:01:57.595Z,53.50
2019-01-29T23:04:27.097Z,53.30
2019-01-29T23:06:56.961Z,52.70
2019-01-29T23:09:26.196Z,46.37
2019-01-29T23:11:55.652Z,52.53
2019-01-29T23:14:25.190Z,51.37
2019-01-29T23:16:54.782Z,51.43
2019-01-29T23:19:24.148Z,48.30
2019-01-29T23:21:53.642Z,48.50
2019-01-29T23:24:23.084Z,48.53
2019-01-29T23:26:53.404Z,48.33
2019-01-29T23:29:22.966Z,46.13
2019-01-29T23:31:52.411Z,51.33
2019-01-29T23:34:21.571Z,50.40
2019-01-29T23:36:56.976Z,49.43
2019-01-29T23:39:26.288Z,49.90
2019-01-29T23:41:55.971Z,55.53
2019-01-29T23:44:25.319Z,47.17
2019-01-29T23:46:56.844Z,54.30
2019-01-29T23:49:26.321Z,48.87
2019-01-29T23:51:55.899Z,54.00
2019-01-29T23:54:25.330Z,58.47
2019-01-29T23:56:56.501Z,51.70
2019-01-29T23:59:26.030Z,53.33
